createdAt,value
2022-10-29T00:00:56.393Z,7.78
2022-10-29T00:03:25.859Z,8.15
2022-10-29T00:05:58.910Z,9.35
2022-10-29T00:08:26.658Z,8.35
2022-10-29T00:10:53.776Z,8.35
2022-10-29T00:13:21.524Z,8.20
2022-10-29T00:15:48.550Z,7.63
2022-10-29T00:18:15.561Z,7.60
2022-10-29T00:20:42.461Z,8.57
2022-10-29T00:23:09.432Z,7.85
2022-10-29T00:25:36.681Z,6.85
2022-10-29T00:28:04.155Z,7.45
2022-10-29T00:30:31.281Z,8.30
2022-10-29T00:32:58.375Z,7.40
2022-10-29T00:35:26.307Z,7.53
2022-10-29T00:37:53.551Z,7.95
2022-10-29T00:40:21.573Z,7.15
2022-10-29T00:42:48.856Z,8.65
2022-10-29T00:45:20.994Z,7.57
2022-10-29T00:47:52.274Z,8.40
2022-10-29T00:50:22.589Z,7.90
2022-10-29T00:52:51.821Z,7.80
2022-10-29T00:55:20.594Z,7.40
2022-10-29T00:57:51.809Z,7.13
2022-10-29T01:00:19.772Z,7.15
2022-10-29T01:02:48.119Z,7.18
2022-10-29T01:05:20.254Z,7.72
2022-10-29T01:07:47.994Z,6.05
2022-10-29T01:10:17.151Z,6.95
2022-10-29T01:12:59.246Z,7.35
2022-10-29T01:15:50.229Z,8.00
2022-10-29T01:19:00.496Z,7.80
2022-10-29T01:21:44.327Z,7.47
2022-10-29T01:24:39.004Z,7.50
2022-10-29T01:27:40.025Z,7.65
2022-10-29T01:30:21.704Z,6.82
2022-10-29T01:33:14.197Z,7.45
2022-10-29T01:35:44.235Z,7.68
2022-10-29T01:38:53.403Z,8.95
2022-10-29T01:41:32.035Z,9.13
2022-10-29T01:44:07.869Z,9.05
2022-10-29T01:46:49.932Z,9.52
2022-10-29T01:49:23.103Z,9.68
2022-10-29T01:51:51.340Z,8.90
2022-10-29T01:54:18.486Z,8.93
2022-10-29T01:56:57.329Z,9.45
2022-10-29T01:59:36.160Z,10.00
2022-10-29T02:02:24.137Z,10.10
2022-10-29T02:05:01.186Z,9.75
2022-10-29T02:07:51.610Z,11.02
2022-10-29T02:10:54.442Z,9.93
2022-10-29T02:13:28.733Z,9.25
2022-10-29T02:15:57.321Z,8.82
2022-10-29T02:18:25.300Z,9.82
2022-10-29T02:20:54.245Z,9.75
2022-10-29T02:23:21.243Z,9.05
2022-10-29T02:25:48.274Z,10.07
2022-10-29T02:28:15.601Z,9.65
2022-10-29T02:30:42.955Z,10.02
2022-10-29T02:33:10.050Z,10.18
2022-10-29T02:35:37.182Z,10.18
2022-10-29T02:38:04.277Z,9.75
2022-10-29T02:40:34.482Z,8.07
2022-10-29T02:43:01.593Z,10.57
2022-10-29T02:45:28.486Z,10.65
2022-10-29T02:47:55.889Z,11.40
2022-10-29T02:50:23.141Z,11.95
2022-10-29T02:52:50.043Z,12.40
2022-10-29T02:55:17.018Z,10.43
2022-10-29T02:57:45.078Z,11.68
2022-10-29T03:00:13.215Z,11.15
2022-10-29T03:02:41.280Z,10.27
2022-10-29T03:05:08.649Z,10.88
2022-10-29T03:07:37.863Z,10.18
2022-10-29T03:10:06.983Z,10.27
2022-10-29T03:12:34.794Z,10.35
2022-10-29T03:15:02.047Z,12.48
2022-10-29T03:17:30.267Z,11.18
2022-10-29T03:19:57.614Z,11.70
2022-10-29T03:22:24.829Z,12.45
2022-10-29T03:24:51.864Z,12.63
2022-10-29T03:27:18.784Z,12.48
2022-10-29T03:29:45.898Z,13.57
2022-10-29T03:32:12.938Z,13.07
2022-10-29T03:34:40.402Z,12.98
2022-10-29T03:37:07.432Z,13.05
2022-10-29T03:39:34.496Z,13.50
2022-10-29T03:42:01.362Z,11.63
2022-10-29T03:44:28.275Z,13.52
2022-10-29T03:46:55.173Z,14.10
2022-10-29T03:49:23.081Z,12.55
2022-10-29T03:51:50.467Z,14.10
2022-10-29T03:54:17.482Z,13.30
2022-10-29T03:56:44.339Z,13.32
2022-10-29T04:01:38.420Z,14.13
2022-10-29T04:04:05.650Z,14.02
2022-10-29T04:06:32.874Z,13.32
2022-10-29T04:09:00.253Z,14.40
2022-10-29T04:11:27.756Z,13.25
2022-10-29T04:13:55.183Z,13.65
2022-10-29T04:16:22.643Z,14.18
2022-10-29T04:18:51.156Z,14.93
2022-10-29T04:28:17.473Z,15.30
2022-10-29T04:29:40.634Z,16.73
2022-10-29T04:32:07.925Z,17.33
2022-10-29T04:34:37.451Z,17.13
2022-10-29T04:37:04.518Z,16.77
2022-10-29T04:39:31.618Z,16.52
2022-10-29T04:41:58.695Z,17.42
2022-10-29T04:44:26.105Z,16.33
2022-10-29T04:46:53.221Z,16.05
2022-10-29T04:49:20.258Z,17.83
2022-10-29T04:51:47.377Z,17.48
2022-10-29T04:54:16.652Z,17.58
2022-10-29T04:56:55.436Z,16.27
2022-10-29T04:59:23.988Z,16.60
2022-10-29T05:01:50.988Z,16.35
2022-10-29T05:04:18.175Z,16.48
2022-10-29T05:06:45.159Z,15.48
2022-10-29T05:09:13.124Z,16.95
2022-10-29T05:11:40.907Z,15.05
2022-10-29T05:14:08.664Z,17.15
2022-10-29T05:16:36.308Z,16.65
2022-10-29T05:19:05.086Z,16.30
2022-10-29T05:21:33.213Z,15.07
2022-10-29T05:24:01.375Z,16.70
2022-10-29T05:26:32.555Z,16.70
2022-10-29T05:28:59.658Z,15.77
2022-10-29T05:31:26.681Z,15.35
2022-10-29T05:33:55.628Z,16.95
2022-10-29T05:36:24.096Z,15.43
2022-10-29T05:38:51.106Z,17.42
2022-10-29T05:41:27.180Z,15.13
2022-10-29T05:43:54.398Z,16.85
2022-10-29T05:46:21.320Z,16.20
2022-10-29T05:48:49.114Z,15.60
2022-10-29T05:51:16.602Z,16.10
2022-10-29T05:53:43.854Z,16.88
2022-10-29T05:56:10.905Z,15.93
2022-10-29T05:58:39.017Z,16.63
2022-10-29T06:01:10.544Z,15.20
2022-10-29T06:03:40.662Z,16.27
2022-10-29T06:06:08.657Z,15.65
2022-10-29T06:08:36.268Z,15.80
2022-10-29T06:11:04.435Z,14.80
2022-10-29T06:13:36.856Z,14.10
2022-10-29T06:16:04.985Z,14.38
2022-10-29T06:18:41.861Z,13.70
2022-10-29T06:21:09.450Z,13.45
2022-10-29T06:23:37.153Z,14.07
2022-10-29T06:26:04.243Z,12.85
2022-10-29T06:28:33.654Z,14.80
2022-10-29T06:31:01.854Z,13.80
2022-10-29T06:33:28.862Z,11.55
2022-10-29T06:36:02.268Z,12.98
2022-10-29T06:38:30.657Z,12.57
2022-10-29T06:40:59.517Z,12.27
2022-10-29T06:43:31.282Z,13.93
2022-10-29T06:46:14.716Z,13.00
2022-10-29T06:48:44.816Z,12.40
2022-10-29T06:51:11.850Z,12.23
2022-10-29T06:53:39.110Z,11.77
2022-10-29T06:56:06.278Z,12.80
2022-10-29T06:58:33.446Z,11.50
2022-10-29T07:01:01.673Z,11.77
2022-10-29T07:03:28.697Z,13.43
2022-10-29T07:05:57.732Z,10.73
2022-10-29T07:08:25.326Z,12.60
2022-10-29T07:10:53.676Z,12.45
2022-10-29T07:13:21.116Z,13.82
2022-10-29T07:15:48.153Z,13.45
2022-10-29T07:18:16.172Z,13.77
2022-10-29T07:20:45.643Z,14.43
2022-10-29T07:23:13.670Z,14.55
2022-10-29T07:25:41.621Z,15.07
2022-10-29T07:28:23.242Z,15.32
2022-10-29T07:30:53.811Z,15.48
2022-10-29T07:33:20.950Z,15.55
2022-10-29T07:35:51.004Z,13.98
2022-10-29T07:38:17.804Z,14.25
2022-10-29T07:40:50.442Z,13.88
2022-10-29T07:43:18.715Z,13.68
2022-10-29T07:45:46.792Z,12.95
2022-10-29T07:48:13.911Z,15.23
2022-10-29T07:50:41.992Z,15.02
2022-10-29T07:53:10.097Z,14.77
2022-10-29T07:55:37.569Z,15.73
2022-10-29T07:58:07.039Z,15.45
2022-10-29T08:00:37.070Z,14.45
2022-10-29T08:03:04.769Z,14.73
2022-10-29T08:05:32.303Z,15.63
2022-10-29T08:07:59.936Z,14.07
2022-10-29T08:10:27.809Z,14.45
2022-10-29T08:12:58.223Z,14.10
2022-10-29T08:15:27.215Z,14.82
2022-10-29T08:17:54.835Z,13.65
2022-10-29T08:20:22.979Z,14.20
2022-10-29T08:22:50.302Z,13.48
2022-10-29T08:25:17.955Z,12.88
2022-10-29T08:27:45.158Z,13.32
2022-10-29T08:30:14.277Z,13.40
2022-10-29T08:32:47.844Z,13.65
2022-10-29T08:35:15.287Z,12.98
2022-10-29T08:37:46.000Z,12.38
2022-10-29T08:40:35.078Z,12.57
2022-10-29T08:43:20.850Z,12.23
2022-10-29T08:45:51.011Z,11.77
2022-10-29T08:48:39.942Z,11.73
2022-10-29T08:51:10.169Z,11.45
2022-10-29T08:53:45.437Z,12.45
2022-10-29T08:56:22.120Z,12.32
2022-10-29T08:59:12.035Z,12.75
2022-10-29T09:01:38.946Z,12.57
2022-10-29T09:04:28.467Z,12.35
2022-10-29T09:06:58.202Z,12.23
2022-10-29T09:09:28.885Z,12.38
2022-10-29T09:12:17.069Z,11.10
2022-10-29T09:14:53.052Z,12.55
2022-10-29T09:17:46.178Z,13.00
2022-10-29T09:20:41.186Z,12.00
2022-10-29T09:23:22.978Z,12.57
2022-10-29T09:26:21.730Z,11.27
2022-10-29T09:29:26.225Z,11.23
2022-10-29T09:32:02.099Z,11.85
2022-10-29T09:34:30.957Z,11.45
2022-10-29T09:36:58.837Z,11.70
2022-10-29T09:39:35.400Z,11.25
2022-10-29T09:42:03.217Z,11.63
2022-10-29T09:44:55.986Z,10.43
2022-10-29T09:47:34.338Z,10.95
2022-10-29T09:50:13.054Z,9.80
2022-10-29T09:52:43.602Z,9.95
2022-10-29T09:55:31.549Z,9.15
2022-10-29T09:57:58.626Z,9.20
2022-10-29T10:00:28.596Z,9.10
2022-10-29T10:03:01.863Z,8.80
2022-10-29T10:05:31.902Z,9.32
2022-10-29T10:08:11.747Z,8.05
2022-10-29T10:11:01.340Z,8.65
2022-10-29T10:13:38.519Z,8.45
2022-10-29T10:16:06.775Z,8.80
2022-10-29T10:18:33.704Z,8.18
2022-10-29T10:21:30.546Z,8.88
2022-10-29T10:23:58.600Z,8.57
2022-10-29T10:26:43.171Z,8.60
2022-10-29T10:29:11.034Z,8.23
2022-10-29T10:31:38.627Z,7.88
2022-10-29T10:34:15.345Z,7.85
2022-10-29T10:36:52.567Z,7.50
2022-10-29T10:39:25.597Z,7.68
2022-10-29T10:41:53.088Z,8.50
2022-10-29T10:44:22.377Z,7.22
2022-10-29T10:46:52.665Z,7.53
2022-10-29T10:49:39.216Z,7.43
2022-10-29T10:52:15.822Z,7.68
2022-10-29T10:54:47.592Z,7.45
2022-10-29T10:57:17.204Z,6.93
2022-10-29T11:00:10.177Z,6.82
2022-10-29T11:02:46.309Z,7.35
2022-10-29T11:05:16.400Z,6.88
2022-10-29T11:07:57.266Z,7.13
2022-10-29T11:10:33.915Z,7.18
2022-10-29T11:13:05.259Z,7.72
2022-10-29T11:15:41.137Z,7.60
2022-10-29T11:18:20.470Z,7.20
2022-10-29T11:21:17.045Z,7.45
2022-10-29T11:23:56.028Z,6.70
2022-10-29T11:26:32.415Z,6.82
2022-10-29T11:29:15.651Z,7.25
2022-10-29T11:32:09.845Z,6.82
2022-10-29T11:35:09.847Z,7.47
2022-10-29T11:38:01.706Z,6.80
2022-10-29T11:41:05.151Z,6.78
2022-10-29T11:43:34.040Z,7.30
2022-10-29T11:46:30.235Z,7.68
2022-10-29T11:49:18.415Z,7.30
2022-10-29T11:52:08.490Z,6.65
2022-10-29T11:55:10.034Z,6.72
2022-10-29T11:57:47.327Z,6.57
2022-10-29T12:00:23.912Z,6.72
2022-10-29T12:02:54.080Z,6.55
2022-10-29T12:05:59.655Z,6.45
2022-10-29T12:08:44.911Z,6.33
2022-10-29T12:11:22.528Z,6.50
2022-10-29T12:13:54.893Z,7.03
2022-10-29T12:16:31.014Z,6.25
2022-10-29T12:19:00.984Z,7.18
2022-10-29T12:21:31.063Z,7.13
2022-10-29T12:24:24.739Z,6.18
2022-10-29T12:26:59.088Z,6.68
2022-10-29T12:29:50.726Z,6.00
2022-10-29T12:32:28.773Z,6.70
2022-10-29T12:34:55.669Z,5.57
2022-10-29T12:37:34.706Z,6.28
2022-10-29T12:40:26.230Z,5.57
2022-10-29T12:42:55.057Z,5.82
2022-10-29T12:46:06.477Z,5.82
2022-10-29T12:49:16.777Z,6.22
2022-10-29T12:52:03.244Z,5.70
2022-10-29T12:54:42.175Z,5.40
2022-10-29T12:57:15.722Z,5.95
2022-10-29T12:59:45.011Z,6.50
2022-10-29T13:02:27.367Z,6.15
2022-10-29T13:05:09.819Z,6.32
2022-10-29T13:07:46.126Z,6.50
2022-10-29T13:10:31.450Z,5.75
2022-10-29T13:13:16.978Z,6.25
